sensor_id;sensor_type;location;lat;lon;timestamp;P1;durP1;ratioP1;P2;durP2;ratioP2
29500;SDS011;16450;50.288;10.966;2023-07-16T00:02:02;5.63;;;3.13;;
29500;SDS011;16450;50.288;10.966;2023-07-16T00:05:05;4.50;;;2.65;;
29500;SDS011;16450;50.288;10.966;2023-07-16T00:08:07;4.43;;;2.65;;
29500;SDS011;16450;50.288;10.966;2023-07-16T00:11:09;4.70;;;2.58;;
29500;SDS011;16450;50.288;10.966;2023-07-16T00:14:11;5.28;;;2.80;;
29500;SDS011;16450;50.288;10.966;2023-07-16T00:17:13;3.47;;;2.95;;
29500;SDS011;16450;50.288;10.966;2023-07-16T00:20:15;5.35;;;2.88;;
29500;SDS011;16450;50.288;10.966;2023-07-16T00:23:17;3.80;;;2.63;;
29500;SDS011;16450;50.288;10.966;2023-07-16T00:26:19;5.22;;;3.15;;
29500;SDS011;16450;50.288;10.966;2023-07-16T00:29:21;7.13;;;3.13;;
29500;SDS011;16450;50.288;10.966;2023-07-16T00:32:23;6.13;;;3.05;;
29500;SDS011;16450;50.288;10.966;2023-07-16T00:35:25;4.55;;;2.88;;
29500;SDS011;16450;50.288;10.966;2023-07-16T00:38:27;4.22;;;2.67;;
29500;SDS011;16450;50.288;10.966;2023-07-16T00:41:29;4.07;;;2.60;;
29500;SDS011;16450;50.288;10.966;2023-07-16T00:44:31;6.90;;;3.10;;
29500;SDS011;16450;50.288;10.966;2023-07-16T00:47:33;3.85;;;2.55;;
29500;SDS011;16450;50.288;10.966;2023-07-16T00:50:35;4.90;;;2.58;;
29500;SDS011;16450;50.288;10.966;2023-07-16T00:53:41;6.73;;;2.80;;
29500;SDS011;16450;50.288;10.966;2023-07-16T00:56:44;4.25;;;2.20;;
29500;SDS011;16450;50.288;10.966;2023-07-16T00:59:46;5.33;;;2.20;;
29500;SDS011;16450;50.288;10.966;2023-07-16T01:02:48;6.18;;;2.30;;
29500;SDS011;16450;50.288;10.966;2023-07-16T01:09:11;3.40;;;2.00;;
29500;SDS011;16450;50.288;10.966;2023-07-16T01:12:18;3.70;;;2.07;;
29500;SDS011;16450;50.288;10.966;2023-07-16T01:15:23;6.40;;;2.45;;
29500;SDS011;16450;50.288;10.966;2023-07-16T01:18:25;3.50;;;2.10;;
29500;SDS011;16450;50.288;10.966;2023-07-16T01:21:29;3.65;;;2.22;;
29500;SDS011;16450;50.288;10.966;2023-07-16T01:31:02;3.17;;;2.00;;
29500;SDS011;16450;50.288;10.966;2023-07-16T01:34:04;3.67;;;2.30;;
29500;SDS011;16450;50.288;10.966;2023-07-16T01:37:07;3.93;;;2.10;;
29500;SDS011;16450;50.288;10.966;2023-07-16T01:40:09;3.17;;;2.23;;
29500;SDS011;16450;50.288;10.966;2023-07-16T01:43:12;3.43;;;2.10;;
29500;SDS011;16450;50.288;10.966;2023-07-16T01:46:14;3.67;;;2.40;;
29500;SDS011;16450;50.288;10.966;2023-07-16T01:49:16;4.90;;;2.03;;
29500;SDS011;16450;50.288;10.966;2023-07-16T01:52:18;5.77;;;2.70;;
29500;SDS011;16450;50.288;10.966;2023-07-16T01:55:20;2.40;;;2.20;;
29500;SDS011;16450;50.288;10.966;2023-07-16T01:58:23;4.23;;;2.33;;
29500;SDS011;16450;50.288;10.966;2023-07-16T02:01:25;4.17;;;2.20;;
29500;SDS011;16450;50.288;10.966;2023-07-16T02:04:27;4.73;;;2.60;;
29500;SDS011;16450;50.288;10.966;2023-07-16T02:07:29;4.17;;;2.60;;
29500;SDS011;16450;50.288;10.966;2023-07-16T02:10:31;3.17;;;2.27;;
29500;SDS011;16450;50.288;10.966;2023-07-16T02:13:33;3.30;;;2.30;;
29500;SDS011;16450;50.288;10.966;2023-07-16T02:16:35;4.40;;;2.40;;
29500;SDS011;16450;50.288;10.966;2023-07-16T02:19:37;3.93;;;2.10;;
29500;SDS011;16450;50.288;10.966;2023-07-16T02:22:39;3.73;;;2.50;;
29500;SDS011;16450;50.288;10.966;2023-07-16T02:25:41;2.60;;;2.10;;
29500;SDS011;16450;50.288;10.966;2023-07-16T02:28:43;4.33;;;2.50;;
29500;SDS011;16450;50.288;10.966;2023-07-16T02:31:45;2.87;;;2.30;;
29500;SDS011;16450;50.288;10.966;2023-07-16T02:34:50;5.70;;;2.33;;
29500;SDS011;16450;50.288;10.966;2023-07-16T02:37:51;4.70;;;2.40;;
29500;SDS011;16450;50.288;10.966;2023-07-16T02:40:53;4.40;;;2.67;;
29500;SDS011;16450;50.288;10.966;2023-07-16T02:44:03;3.33;;;2.27;;
29500;SDS011;16450;50.288;10.966;2023-07-16T02:47:06;4.70;;;2.60;;
29500;SDS011;16450;50.288;10.966;2023-07-16T02:50:08;3.70;;;2.47;;
29500;SDS011;16450;50.288;10.966;2023-07-16T02:53:10;3.87;;;2.57;;
29500;SDS011;16450;50.288;10.966;2023-07-16T02:56:12;4.40;;;2.67;;
29500;SDS011;16450;50.288;10.966;2023-07-16T02:59:15;5.50;;;2.95;;
29500;SDS011;16450;50.288;10.966;2023-07-16T03:02:16;4.68;;;3.08;;
29500;SDS011;16450;50.288;10.966;2023-07-16T03:05:18;6.47;;;3.60;;
29500;SDS011;16450;50.288;10.966;2023-07-16T03:08:20;6.05;;;3.30;;
29500;SDS011;16450;50.288;10.966;2023-07-16T03:11:24;4.40;;;3.30;;
29500;SDS011;16450;50.288;10.966;2023-07-16T03:14:25;3.17;;;2.80;;
29500;SDS011;16450;50.288;10.966;2023-07-16T03:17:27;4.90;;;2.80;;
29500;SDS011;16450;50.288;10.966;2023-07-16T03:20:29;8.80;;;2.83;;
29500;SDS011;16450;50.288;10.966;2023-07-16T03:23:32;5.22;;;2.90;;
29500;SDS011;16450;50.288;10.966;2023-07-16T03:26:34;4.17;;;2.80;;
29500;SDS011;16450;50.288;10.966;2023-07-16T03:29:36;4.55;;;2.60;;
29500;SDS011;16450;50.288;10.966;2023-07-16T03:32:37;3.47;;;2.47;;
29500;SDS011;16450;50.288;10.966;2023-07-16T03:35:51;2.83;;;2.53;;
29500;SDS011;16450;50.288;10.966;2023-07-16T03:38:53;4.50;;;2.90;;
29500;SDS011;16450;50.288;10.966;2023-07-16T03:41:55;4.77;;;2.53;;
29500;SDS011;16450;50.288;10.966;2023-07-16T03:44:57;5.03;;;2.33;;
29500;SDS011;16450;50.288;10.966;2023-07-16T03:47:59;2.97;;;2.20;;
29500;SDS011;16450;50.288;10.966;2023-07-16T03:51:01;3.73;;;2.40;;
29500;SDS011;16450;50.288;10.966;2023-07-16T03:54:04;4.20;;;2.60;;
29500;SDS011;16450;50.288;10.966;2023-07-16T03:57:06;4.20;;;2.60;;
29500;SDS011;16450;50.288;10.966;2023-07-16T04:00:08;2.57;;;2.20;;
29500;SDS011;16450;50.288;10.966;2023-07-16T04:03:10;3.40;;;2.03;;
29500;SDS011;16450;50.288;10.966;2023-07-16T04:06:14;3.23;;;2.10;;
29500;SDS011;16450;50.288;10.966;2023-07-16T04:09:16;2.97;;;2.23;;
29500;SDS011;16450;50.288;10.966;2023-07-16T04:12:18;4.57;;;1.90;;
29500;SDS011;16450;50.288;10.966;2023-07-16T04:15:20;3.77;;;1.90;;
29500;SDS011;16450;50.288;10.966;2023-07-16T04:18:22;2.27;;;1.97;;
29500;SDS011;16450;50.288;10.966;2023-07-16T04:21:26;2.60;;;1.93;;
29500;SDS011;16450;50.288;10.966;2023-07-16T04:24:28;4.90;;;2.20;;
29500;SDS011;16450;50.288;10.966;2023-07-16T04:27:30;4.53;;;1.83;;
29500;SDS011;16450;50.288;10.966;2023-07-16T04:30:32;2.50;;;1.70;;
29500;SDS011;16450;50.288;10.966;2023-07-16T04:33:34;2.00;;;1.77;;
29500;SDS011;16450;50.288;10.966;2023-07-16T04:36:36;2.00;;;1.80;;
29500;SDS011;16450;50.288;10.966;2023-07-16T04:39:38;1.83;;;1.63;;
29500;SDS011;16450;50.288;10.966;2023-07-16T04:42:40;2.90;;;2.27;;
29500;SDS011;16450;50.288;10.966;2023-07-16T04:45:43;3.57;;;1.90;;
29500;SDS011;16450;50.288;10.966;2023-07-16T04:48:48;4.80;;;2.00;;
29500;SDS011;16450;50.288;10.966;2023-07-16T04:51:50;2.97;;;1.80;;
29500;SDS011;16450;50.288;10.966;2023-07-16T04:54:51;3.37;;;1.73;;
29500;SDS011;16450;50.288;10.966;2023-07-16T04:57:54;2.87;;;1.90;;
29500;SDS011;16450;50.288;10.966;2023-07-16T05:00:55;6.20;;;1.80;;
29500;SDS011;16450;50.288;10.966;2023-07-16T05:03:58;2.43;;;1.70;;
29500;SDS011;16450;50.288;10.966;2023-07-16T05:07:02;4.83;;;1.97;;
29500;SDS011;16450;50.288;10.966;2023-07-16T05:10:05;3.50;;;1.70;;
29500;SDS011;16450;50.288;10.966;2023-07-16T05:13:07;4.77;;;2.00;;
29500;SDS011;16450;50.288;10.966;2023-07-16T05:16:11;3.20;;;1.80;;
29500;SDS011;16450;50.288;10.966;2023-07-16T05:19:13;2.43;;;1.80;;
29500;SDS011;16450;50.288;10.966;2023-07-16T05:22:15;6.93;;;2.00;;
29500;SDS011;16450;50.288;10.966;2023-07-16T05:25:17;3.72;;;1.90;;
29500;SDS011;16450;50.288;10.966;2023-07-16T05:28:19;4.10;;;2.00;;
29500;SDS011;16450;50.288;10.966;2023-07-16T05:31:21;4.88;;;1.80;;
29500;SDS011;16450;50.288;10.966;2023-07-16T05:34:23;4.00;;;1.80;;
29500;SDS011;16450;50.288;10.966;2023-07-16T05:37:25;3.45;;;2.10;;
29500;SDS011;16450;50.288;10.966;2023-07-16T05:40:28;3.50;;;1.77;;
29500;SDS011;16450;50.288;10.966;2023-07-16T05:43:31;3.15;;;1.90;;
29500;SDS011;16450;50.288;10.966;2023-07-16T05:46:34;5.73;;;2.30;;
29500;SDS011;16450;50.288;10.966;2023-07-16T05:49:36;5.38;;;1.90;;
29500;SDS011;16450;50.288;10.966;2023-07-16T05:52:38;4.18;;;1.98;;
29500;SDS011;16450;50.288;10.966;2023-07-16T05:55:40;4.00;;;2.00;;
29500;SDS011;16450;50.288;10.966;2023-07-16T05:58:42;4.15;;;1.90;;
29500;SDS011;16450;50.288;10.966;2023-07-16T06:01:44;4.85;;;1.90;;
29500;SDS011;16450;50.288;10.966;2023-07-16T06:04:46;3.30;;;1.90;;
29500;SDS011;16450;50.288;10.966;2023-07-16T06:07:48;2.22;;;1.90;;
29500;SDS011;16450;50.288;10.966;2023-07-16T06:10:50;5.32;;;1.55;;
29500;SDS011;16450;50.288;10.966;2023-07-16T06:13:53;3.28;;;1.88;;
29500;SDS011;16450;50.288;10.966;2023-07-16T06:16:56;2.75;;;2.13;;
29500;SDS011;16450;50.288;10.966;2023-07-16T06:19:58;4.30;;;1.63;;
29500;SDS011;16450;50.288;10.966;2023-07-16T06:23:00;3.00;;;1.70;;
29500;SDS011;16450;50.288;10.966;2023-07-16T06:26:02;3.15;;;2.00;;
29500;SDS011;16450;50.288;10.966;2023-07-16T06:29:04;3.58;;;1.60;;
29500;SDS011;16450;50.288;10.966;2023-07-16T06:32:06;2.95;;;1.67;;
29500;SDS011;16450;50.288;10.966;2023-07-16T06:35:08;3.20;;;1.50;;
29500;SDS011;16450;50.288;10.966;2023-07-16T06:38:10;3.35;;;1.85;;
29500;SDS011;16450;50.288;10.966;2023-07-16T06:41:12;3.47;;;1.50;;
29500;SDS011;16450;50.288;10.966;2023-07-16T06:44:14;4.35;;;2.15;;
29500;SDS011;16450;50.288;10.966;2023-07-16T06:47:17;4.05;;;1.85;;
29500;SDS011;16450;50.288;10.966;2023-07-16T06:50:19;4.22;;;1.42;;
29500;SDS011;16450;50.288;10.966;2023-07-16T06:53:21;3.45;;;1.70;;
29500;SDS011;16450;50.288;10.966;2023-07-16T06:56:27;2.70;;;1.65;;
29500;SDS011;16450;50.288;10.966;2023-07-16T06:59:29;4.53;;;1.80;;
29500;SDS011;16450;50.288;10.966;2023-07-16T07:02:31;5.05;;;1.90;;
29500;SDS011;16450;50.288;10.966;2023-07-16T07:05:34;3.00;;;1.80;;
29500;SDS011;16450;50.288;10.966;2023-07-16T07:08:40;2.28;;;1.60;;
29500;SDS011;16450;50.288;10.966;2023-07-16T07:11:42;4.28;;;1.60;;
29500;SDS011;16450;50.288;10.966;2023-07-16T07:14:46;5.43;;;1.60;;
29500;SDS011;16450;50.288;10.966;2023-07-16T07:17:48;3.80;;;1.55;;
29500;SDS011;16450;50.288;10.966;2023-07-16T07:20:53;7.20;;;1.80;;
29500;SDS011;16450;50.288;10.966;2023-07-16T07:23:56;4.60;;;1.70;;
29500;SDS011;16450;50.288;10.966;2023-07-16T07:26:58;3.33;;;1.70;;
29500;SDS011;16450;50.288;10.966;2023-07-16T07:30:00;2.58;;;1.58;;
29500;SDS011;16450;50.288;10.966;2023-07-16T07:33:02;8.18;;;2.75;;
29500;SDS011;16450;50.288;10.966;2023-07-16T07:36:04;4.10;;;1.95;;
29500;SDS011;16450;50.288;10.966;2023-07-16T07:39:07;4.20;;;1.85;;
29500;SDS011;16450;50.288;10.966;2023-07-16T07:42:09;4.82;;;1.77;;
29500;SDS011;16450;50.288;10.966;2023-07-16T07:45:11;3.67;;;1.90;;
29500;SDS011;16450;50.288;10.966;2023-07-16T07:48:13;5.50;;;1.80;;
29500;SDS011;16450;50.288;10.966;2023-07-16T07:51:15;7.20;;;1.90;;
29500;SDS011;16450;50.288;10.966;2023-07-16T07:54:17;5.47;;;1.80;;
29500;SDS011;16450;50.288;10.966;2023-07-16T07:57:19;3.17;;;1.67;;
29500;SDS011;16450;50.288;10.966;2023-07-16T08:00:22;4.75;;;1.90;;
29500;SDS011;16450;50.288;10.966;2023-07-16T08:03:24;2.95;;;1.95;;
29500;SDS011;16450;50.288;10.966;2023-07-16T08:06:26;3.67;;;1.92;;
29500;SDS011;16450;50.288;10.966;2023-07-16T08:09:28;4.88;;;1.55;;
29500;SDS011;16450;50.288;10.966;2023-07-16T08:12:30;3.97;;;1.80;;
29500;SDS011;16450;50.288;10.966;2023-07-16T08:15:32;3.05;;;1.88;;
29500;SDS011;16450;50.288;10.966;2023-07-16T08:18:34;2.10;;;1.60;;
29500;SDS011;16450;50.288;10.966;2023-07-16T08:21:36;3.33;;;1.55;;
29500;SDS011;16450;50.288;10.966;2023-07-16T08:24:39;3.60;;;1.65;;
29500;SDS011;16450;50.288;10.966;2023-07-16T08:27:41;4.90;;;1.52;;
29500;SDS011;16450;50.288;10.966;2023-07-16T08:30:46;5.00;;;2.00;;
29500;SDS011;16450;50.288;10.966;2023-07-16T08:33:48;3.92;;;1.70;;
29500;SDS011;16450;50.288;10.966;2023-07-16T08:36:50;4.20;;;1.70;;
29500;SDS011;16450;50.288;10.966;2023-07-16T08:39:52;6.80;;;2.15;;
29500;SDS011;16450;50.288;10.966;2023-07-16T08:42:57;4.95;;;1.83;;
29500;SDS011;16450;50.288;10.966;2023-07-16T08:46:00;3.55;;;1.85;;
29500;SDS011;16450;50.288;10.966;2023-07-16T08:49:03;5.22;;;1.88;;
29500;SDS011;16450;50.288;10.966;2023-07-16T08:52:07;5.00;;;1.60;;
29500;SDS011;16450;50.288;10.966;2023-07-16T08:55:10;4.03;;;1.55;;
29500;SDS011;16450;50.288;10.966;2023-07-16T08:58:13;5.00;;;1.70;;
29500;SDS011;16450;50.288;10.966;2023-07-16T09:01:18;4.30;;;1.60;;
29500;SDS011;16450;50.288;10.966;2023-07-16T09:04:24;4.45;;;1.58;;
29500;SDS011;16450;50.288;10.966;2023-07-16T09:07:26;3.58;;;1.60;;
29500;SDS011;16450;50.288;10.966;2023-07-16T09:10:29;4.68;;;1.52;;
29500;SDS011;16450;50.288;10.966;2023-07-16T09:13:31;2.78;;;1.50;;
29500;SDS011;16450;50.288;10.966;2023-07-16T09:16:34;4.03;;;1.70;;
29500;SDS011;16450;50.288;10.966;2023-07-16T09:19:36;4.82;;;1.70;;
29500;SDS011;16450;50.288;10.966;2023-07-16T09:22:38;5.70;;;1.70;;
29500;SDS011;16450;50.288;10.966;2023-07-16T09:25:40;5.60;;;1.52;;
29500;SDS011;16450;50.288;10.966;2023-07-16T09:28:47;5.53;;;1.60;;
29500;SDS011;16450;50.288;10.966;2023-07-16T09:31:57;5.45;;;1.80;;
29500;SDS011;16450;50.288;10.966;2023-07-16T09:35:00;4.65;;;1.50;;
29500;SDS011;16450;50.288;10.966;2023-07-16T09:38:08;3.13;;;1.50;;
29500;SDS011;16450;50.288;10.966;2023-07-16T09:41:11;4.93;;;1.80;;
29500;SDS011;16450;50.288;10.966;2023-07-16T09:44:13;14.25;;;6.90;;
29500;SDS011;16450;50.288;10.966;2023-07-16T09:47:15;22.90;;;11.48;;
29500;SDS011;16450;50.288;10.966;2023-07-16T09:50:17;30.73;;;22.80;;
29500;SDS011;16450;50.288;10.966;2023-07-16T09:53:20;28.13;;;19.17;;
29500;SDS011;16450;50.288;10.966;2023-07-16T09:56:22;15.25;;;7.82;;
29500;SDS011;16450;50.288;10.966;2023-07-16T09:59:30;6.10;;;3.45;;
29500;SDS011;16450;50.288;10.966;2023-07-16T10:02:34;5.43;;;2.75;;
29500;SDS011;16450;50.288;10.966;2023-07-16T10:05:37;4.55;;;2.30;;
29500;SDS011;16450;50.288;10.966;2023-07-16T10:08:39;5.68;;;1.83;;
29500;SDS011;16450;50.288;10.966;2023-07-16T10:11:41;4.05;;;1.70;;
29500;SDS011;16450;50.288;10.966;2023-07-16T10:14:44;3.10;;;1.65;;
29500;SDS011;16450;50.288;10.966;2023-07-16T10:17:49;3.45;;;1.65;;
29500;SDS011;16450;50.288;10.966;2023-07-16T10:20:53;4.00;;;1.60;;
29500;SDS011;16450;50.288;10.966;2023-07-16T10:23:57;3.10;;;1.58;;
29500;SDS011;16450;50.288;10.966;2023-07-16T10:27:00;3.45;;;1.60;;
29500;SDS011;16450;50.288;10.966;2023-07-16T10:30:03;3.33;;;1.77;;
29500;SDS011;16450;50.288;10.966;2023-07-16T10:33:12;3.72;;;1.60;;
29500;SDS011;16450;50.288;10.966;2023-07-16T10:36:17;4.07;;;1.60;;
29500;SDS011;16450;50.288;10.966;2023-07-16T10:39:20;5.22;;;1.90;;
29500;SDS011;16450;50.288;10.966;2023-07-16T10:42:22;7.05;;;1.90;;
29500;SDS011;16450;50.288;10.966;2023-07-16T10:45:25;3.35;;;1.52;;
29500;SDS011;16450;50.288;10.966;2023-07-16T10:48:30;3.90;;;1.73;;
29500;SDS011;16450;50.288;10.966;2023-07-16T10:51:32;6.28;;;1.77;;
29500;SDS011;16450;50.288;10.966;2023-07-16T10:54:35;4.75;;;1.70;;
29500;SDS011;16450;50.288;10.966;2023-07-16T10:57:37;4.47;;;1.77;;
29500;SDS011;16450;50.288;10.966;2023-07-16T11:00:39;2.85;;;1.30;;
29500;SDS011;16450;50.288;10.966;2023-07-16T11:03:41;5.13;;;1.65;;
29500;SDS011;16450;50.288;10.966;2023-07-16T11:06:43;5.35;;;1.83;;
29500;SDS011;16450;50.288;10.966;2023-07-16T11:09:46;4.25;;;1.58;;
29500;SDS011;16450;50.288;10.966;2023-07-16T11:12:53;4.95;;;2.67;;
29500;SDS011;16450;50.288;10.966;2023-07-16T11:15:55;4.35;;;1.80;;
29500;SDS011;16450;50.288;10.966;2023-07-16T11:18:57;5.25;;;1.77;;
29500;SDS011;16450;50.288;10.966;2023-07-16T11:21:59;4.93;;;1.80;;
29500;SDS011;16450;50.288;10.966;2023-07-16T11:25:03;3.85;;;1.80;;
29500;SDS011;16450;50.288;10.966;2023-07-16T11:28:05;3.72;;;1.90;;
29500;SDS011;16450;50.288;10.966;2023-07-16T11:31:16;3.55;;;1.70;;
29500;SDS011;16450;50.288;10.966;2023-07-16T11:34:20;3.00;;;1.50;;
29500;SDS011;16450;50.288;10.966;2023-07-16T11:37:26;4.28;;;1.85;;
29500;SDS011;16450;50.288;10.966;2023-07-16T11:40:29;4.60;;;1.80;;
29500;SDS011;16450;50.288;10.966;2023-07-16T11:43:34;5.10;;;1.75;;
29500;SDS011;16450;50.288;10.966;2023-07-16T11:46:37;4.53;;;1.42;;
29500;SDS011;16450;50.288;10.966;2023-07-16T11:49:39;7.80;;;2.05;;
29500;SDS011;16450;50.288;10.966;2023-07-16T11:52:41;5.40;;;1.95;;
29500;SDS011;16450;50.288;10.966;2023-07-16T11:55:43;7.75;;;1.70;;
29500;SDS011;16450;50.288;10.966;2023-07-16T11:58:45;5.03;;;1.60;;
29500;SDS011;16450;50.288;10.966;2023-07-16T12:01:47;2.58;;;1.55;;
29500;SDS011;16450;50.288;10.966;2023-07-16T12:04:50;3.97;;;1.60;;
29500;SDS011;16450;50.288;10.966;2023-07-16T12:07:52;5.85;;;1.60;;
29500;SDS011;16450;50.288;10.966;2023-07-16T12:10:54;4.07;;;1.90;;
29500;SDS011;16450;50.288;10.966;2023-07-16T12:13:56;3.97;;;1.60;;
29500;SDS011;16450;50.288;10.966;2023-07-16T12:16:58;4.22;;;2.03;;
29500;SDS011;16450;50.288;10.966;2023-07-16T12:20:00;4.68;;;1.85;;
29500;SDS011;16450;50.288;10.966;2023-07-16T12:23:05;6.50;;;2.10;;
29500;SDS011;16450;50.288;10.966;2023-07-16T12:26:07;6.95;;;2.15;;
29500;SDS011;16450;50.288;10.966;2023-07-16T12:29:10;5.03;;;1.70;;
29500;SDS011;16450;50.288;10.966;2023-07-16T12:32:13;6.32;;;1.90;;
29500;SDS011;16450;50.288;10.966;2023-07-16T12:35:15;4.22;;;1.88;;
29500;SDS011;16450;50.288;10.966;2023-07-16T12:38:17;5.25;;;1.90;;
29500;SDS011;16450;50.288;10.966;2023-07-16T12:41:19;5.13;;;2.05;;
29500;SDS011;16450;50.288;10.966;2023-07-16T12:44:21;4.93;;;2.00;;
29500;SDS011;16450;50.288;10.966;2023-07-16T12:47:24;4.10;;;1.95;;
29500;SDS011;16450;50.288;10.966;2023-07-16T12:50:26;8.02;;;1.90;;
29500;SDS011;16450;50.288;10.966;2023-07-16T12:53:30;7.55;;;2.03;;
29500;SDS011;16450;50.288;10.966;2023-07-16T12:56:32;4.70;;;1.85;;
29500;SDS011;16450;50.288;10.966;2023-07-16T12:59:35;4.63;;;1.90;;
29500;SDS011;16450;50.288;10.966;2023-07-16T13:02:38;3.55;;;1.95;;
29500;SDS011;16450;50.288;10.966;2023-07-16T13:05:40;4.47;;;2.20;;
29500;SDS011;16450;50.288;10.966;2023-07-16T13:08:42;4.20;;;1.80;;
29500;SDS011;16450;50.288;10.966;2023-07-16T13:11:44;3.85;;;2.00;;
29500;SDS011;16450;50.288;10.966;2023-07-16T13:14:46;5.95;;;2.05;;
29500;SDS011;16450;50.288;10.966;2023-07-16T13:17:48;4.20;;;1.90;;
29500;SDS011;16450;50.288;10.966;2023-07-16T13:20:50;5.32;;;2.05;;
29500;SDS011;16450;50.288;10.966;2023-07-16T13:23:52;4.18;;;2.05;;
29500;SDS011;16450;50.288;10.966;2023-07-16T13:26:54;3.15;;;2.00;;
29500;SDS011;16450;50.288;10.966;2023-07-16T13:29:56;4.65;;;1.98;;
29500;SDS011;16450;50.288;10.966;2023-07-16T13:32:58;2.72;;;1.90;;
29500;SDS011;16450;50.288;10.966;2023-07-16T13:36:00;4.07;;;2.42;;
29500;SDS011;16450;50.288;10.966;2023-07-16T13:39:05;5.18;;;2.20;;
29500;SDS011;16450;50.288;10.966;2023-07-16T13:42:08;4.95;;;2.17;;
29500;SDS011;16450;50.288;10.966;2023-07-16T13:45:24;2.80;;;1.80;;
29500;SDS011;16450;50.288;10.966;2023-07-16T13:48:26;5.75;;;2.30;;
29500;SDS011;16450;50.288;10.966;2023-07-16T13:51:28;4.40;;;2.35;;
29500;SDS011;16450;50.288;10.966;2023-07-16T13:54:29;5.15;;;2.08;;
29500;SDS011;16450;50.288;10.966;2023-07-16T13:57:31;5.47;;;2.42;;
29500;SDS011;16450;50.288;10.966;2023-07-16T14:00:33;5.25;;;2.30;;
29500;SDS011;16450;50.288;10.966;2023-07-16T14:03:35;4.20;;;2.35;;
29500;SDS011;16450;50.288;10.966;2023-07-16T14:06:37;5.20;;;2.25;;
29500;SDS011;16450;50.288;10.966;2023-07-16T14:09:39;3.80;;;2.17;;
29500;SDS011;16450;50.288;10.966;2023-07-16T14:12:42;5.07;;;2.15;;
29500;SDS011;16450;50.288;10.966;2023-07-16T14:15:44;5.38;;;2.40;;
29500;SDS011;16450;50.288;10.966;2023-07-16T14:18:49;3.08;;;2.15;;
29500;SDS011;16450;50.288;10.966;2023-07-16T14:21:52;3.92;;;2.15;;
29500;SDS011;16450;50.288;10.966;2023-07-16T14:24:54;5.63;;;2.03;;
29500;SDS011;16450;50.288;10.966;2023-07-16T14:27:56;4.63;;;2.30;;
29500;SDS011;16450;50.288;10.966;2023-07-16T14:30:58;4.25;;;2.13;;
29500;SDS011;16450;50.288;10.966;2023-07-16T14:34:00;5.00;;;2.40;;
29500;SDS011;16450;50.288;10.966;2023-07-16T14:37:02;4.55;;;2.15;;
29500;SDS011;16450;50.288;10.966;2023-07-16T14:40:06;4.22;;;2.50;;
29500;SDS011;16450;50.288;10.966;2023-07-16T14:43:09;4.88;;;2.28;;
29500;SDS011;16450;50.288;10.966;2023-07-16T14:46:11;5.18;;;2.33;;
29500;SDS011;16450;50.288;10.966;2023-07-16T14:49:20;5.18;;;2.25;;
29500;SDS011;16450;50.288;10.966;2023-07-16T14:52:22;6.82;;;2.30;;
29500;SDS011;16450;50.288;10.966;2023-07-16T14:55:24;3.78;;;2.45;;
29500;SDS011;16450;50.288;10.966;2023-07-16T14:58:26;5.43;;;2.40;;
29500;SDS011;16450;50.288;10.966;2023-07-16T15:01:28;4.95;;;2.40;;
29500;SDS011;16450;50.288;10.966;2023-07-16T15:04:30;5.47;;;2.40;;
29500;SDS011;16450;50.288;10.966;2023-07-16T15:07:32;3.60;;;2.40;;
29500;SDS011;16450;50.288;10.966;2023-07-16T15:10:36;5.50;;;2.55;;
29500;SDS011;16450;50.288;10.966;2023-07-16T15:13:38;5.80;;;2.75;;
29500;SDS011;16450;50.288;10.966;2023-07-16T15:16:39;6.57;;;2.50;;
29500;SDS011;16450;50.288;10.966;2023-07-16T15:19:42;4.95;;;2.67;;
29500;SDS011;16450;50.288;10.966;2023-07-16T15:22:46;4.93;;;2.20;;
29500;SDS011;16450;50.288;10.966;2023-07-16T15:25:48;5.35;;;2.38;;
29500;SDS011;16450;50.288;10.966;2023-07-16T15:28:50;7.82;;;2.60;;
29500;SDS011;16450;50.288;10.966;2023-07-16T15:31:52;3.88;;;2.50;;
29500;SDS011;16450;50.288;10.966;2023-07-16T15:34:54;4.30;;;2.40;;
29500;SDS011;16450;50.288;10.966;2023-07-16T15:37:56;4.40;;;2.45;;
29500;SDS011;16450;50.288;10.966;2023-07-16T15:41:00;5.47;;;2.58;;
29500;SDS011;16450;50.288;10.966;2023-07-16T15:44:02;6.18;;;2.30;;
29500;SDS011;16450;50.288;10.966;2023-07-16T15:47:05;3.50;;;2.30;;
29500;SDS011;16450;50.288;10.966;2023-07-16T15:50:07;5.20;;;2.53;;
29500;SDS011;16450;50.288;10.966;2023-07-16T15:53:09;5.75;;;2.35;;
29500;SDS011;16450;50.288;10.966;2023-07-16T15:56:11;3.83;;;2.28;;
29500;SDS011;16450;50.288;10.966;2023-07-16T15:59:13;6.13;;;2.40;;
29500;SDS011;16450;50.288;10.966;2023-07-16T16:02:15;4.93;;;2.50;;
29500;SDS011;16450;50.288;10.966;2023-07-16T16:05:17;4.03;;;2.22;;
29500;SDS011;16450;50.288;10.966;2023-07-16T16:08:20;5.30;;;2.60;;
29500;SDS011;16450;50.288;10.966;2023-07-16T16:11:22;5.03;;;2.25;;
29500;SDS011;16450;50.288;10.966;2023-07-16T16:14:25;5.07;;;2.20;;
29500;SDS011;16450;50.288;10.966;2023-07-16T16:17:31;3.85;;;2.33;;
29500;SDS011;16450;50.288;10.966;2023-07-16T16:20:33;5.07;;;2.38;;
29500;SDS011;16450;50.288;10.966;2023-07-16T16:23:35;4.43;;;2.67;;
29500;SDS011;16450;50.288;10.966;2023-07-16T16:26:37;4.40;;;2.47;;
29500;SDS011;16450;50.288;10.966;2023-07-16T16:29:38;4.03;;;2.30;;
29500;SDS011;16450;50.288;10.966;2023-07-16T16:32:40;5.18;;;2.17;;
29500;SDS011;16450;50.288;10.966;2023-07-16T16:35:42;3.70;;;2.00;;
29500;SDS011;16450;50.288;10.966;2023-07-16T16:38:44;4.47;;;2.17;;
29500;SDS011;16450;50.288;10.966;2023-07-16T16:41:46;4.13;;;2.20;;
29500;SDS011;16450;50.288;10.966;2023-07-16T16:44:49;5.70;;;2.13;;
29500;SDS011;16450;50.288;10.966;2023-07-16T16:47:51;5.20;;;2.10;;
29500;SDS011;16450;50.288;10.966;2023-07-16T16:50:56;4.22;;;2.00;;
29500;SDS011;16450;50.288;10.966;2023-07-16T16:53:59;3.63;;;2.20;;
29500;SDS011;16450;50.288;10.966;2023-07-16T16:57:01;6.72;;;2.50;;
29500;SDS011;16450;50.288;10.966;2023-07-16T17:00:05;3.38;;;1.85;;
29500;SDS011;16450;50.288;10.966;2023-07-16T17:03:12;5.10;;;2.25;;
29500;SDS011;16450;50.288;10.966;2023-07-16T17:06:14;5.40;;;2.30;;
29500;SDS011;16450;50.288;10.966;2023-07-16T17:09:16;4.75;;;2.42;;
29500;SDS011;16450;50.288;10.966;2023-07-16T17:12:17;3.35;;;2.15;;
29500;SDS011;16450;50.288;10.966;2023-07-16T17:15:20;3.58;;;2.38;;
29500;SDS011;16450;50.288;10.966;2023-07-16T17:18:22;6.97;;;2.00;;
29500;SDS011;16450;50.288;10.966;2023-07-16T17:21:24;3.85;;;1.90;;
29500;SDS011;16450;50.288;10.966;2023-07-16T17:24:27;3.17;;;2.00;;
29500;SDS011;16450;50.288;10.966;2023-07-16T17:27:30;5.38;;;2.60;;
29500;SDS011;16450;50.288;10.966;2023-07-16T17:30:31;7.85;;;2.40;;
29500;SDS011;16450;50.288;10.966;2023-07-16T17:33:33;3.05;;;2.40;;
29500;SDS011;16450;50.288;10.966;2023-07-16T17:36:35;4.60;;;2.33;;
29500;SDS011;16450;50.288;10.966;2023-07-16T17:39:37;5.70;;;2.20;;
29500;SDS011;16450;50.288;10.966;2023-07-16T17:42:39;4.03;;;2.10;;
29500;SDS011;16450;50.288;10.966;2023-07-16T17:45:42;4.50;;;2.30;;
29500;SDS011;16450;50.288;10.966;2023-07-16T17:48:44;4.10;;;2.20;;
29500;SDS011;16450;50.288;10.966;2023-07-16T17:51:46;3.47;;;2.05;;
29500;SDS011;16450;50.288;10.966;2023-07-16T17:54:48;5.63;;;2.35;;
29500;SDS011;16450;50.288;10.966;2023-07-16T17:57:49;5.10;;;2.22;;
29500;SDS011;16450;50.288;10.966;2023-07-16T18:00:57;3.80;;;2.20;;
29500;SDS011;16450;50.288;10.966;2023-07-16T18:03:59;3.15;;;2.00;;
29500;SDS011;16450;50.288;10.966;2023-07-16T18:07:02;5.72;;;2.25;;
29500;SDS011;16450;50.288;10.966;2023-07-16T18:10:04;5.78;;;2.33;;
29500;SDS011;16450;50.288;10.966;2023-07-16T18:13:07;4.55;;;2.10;;